Dayton, New Jersey
Current Conditions -  °F | °C
As of 3:53 AM on Friday 31 Oct 2014 (Local Time) from KTTN Reporting Station
Clear Clear  
Wind Chill: 30°   Ceiling: Unl
Heat Index: 36°   Visibility: 10mi
Dew Point: 32°   Wind: 7mph
Humidity: 86%   Direction: 310°NW
Pressure: 30"   Gusts: NA
Location:  40.37°N, 74.51°W
Report Text: KTTN 310753Z AUTO 31006KT 10SM CLR 02/00 A3000 RMK AO2 SLP155 T00220000
Loading
Personal Weather Stations






























Interactive Weather Map
Tropical Storm Tracking
New forecast layout! Learn more

10-Day Weather Forecast

Advertisements
Track Severe Weather on mobile